Time;durP1;ratioP1;P1;durP2;ratioP2;P2;SDS_P1;SDS_P2;PMS_P1;PMS_P2;Temp;Humidity;BMP_temperature;BMP_pressure;BME280_temperature;BME280_humidity;BME280_pressure;Samples;Min_cycle;Max_cycle;Signal;HPM_P1;HPM_P2
2023/03/15 00:00:46;;;;;;;1.58;0.52;;;2.60;99.90;;;;;;5027727;28;20064;-78
2023/03/15 00:03:13;;;;;;;2.90;0.70;;;2.50;99.90;;;;;;5027271;28;20099;-77
2023/03/15 00:05:47;;;;;;;1.25;0.60;;;2.40;99.90;;;;;;5027167;28;20040;-79
2023/03/15 00:08:15;;;;;;;1.67;0.60;;;2.30;99.90;;;;;;5027911;28;20108;-77
2023/03/15 00:10:45;;;;;;;3.75;0.80;;;2.20;99.90;;;;;;5028991;28;20493;-79
2023/03/15 00:13:12;;;;;;;2.28;0.90;;;2.30;99.90;;;;;;5026647;28;20029;-77
2023/03/15 00:15:46;;;;;;;1.70;0.90;;;2.20;99.90;;;;;;5027560;28;20045;-76
2023/03/15 00:18:12;;;;;;;1.00;0.50;;;2.10;99.90;;;;;;5023744;28;20148;-78
2023/03/15 00:20:38;;;;;;;2.10;0.70;;;2.10;99.90;;;;;;5027010;28;20045;-78
2023/03/15 00:23:03;;;;;;;1.67;0.70;;;2.10;99.90;;;;;;5027957;28;20036;-74
2023/03/15 00:25:29;;;;;;;4.20;0.88;;;2.10;99.90;;;;;;5025567;28;20371;-78
2023/03/15 00:27:54;;;;;;;2.50;0.70;;;2.00;99.90;;;;;;5027884;28;20382;-79
2023/03/15 00:30:20;;;;;;;1.02;0.60;;;2.00;99.90;;;;;;5027879;28;20041;-79
2023/03/15 00:32:46;;;;;;;2.25;0.70;;;2.00;99.90;;;;;;5026731;28;20467;-78
2023/03/15 00:35:12;;;;;;;3.15;1.00;;;1.90;99.90;;;;;;5027045;28;20025;-78
2023/03/15 00:37:38;;;;;;;4.57;1.00;;;1.90;99.90;;;;;;5027390;28;20451;-77
2023/03/15 00:40:06;;;;;;;2.88;0.80;;;1.90;99.90;;;;;;5026612;28;20038;-79
2023/03/15 00:42:32;;;;;;;3.85;1.23;;;1.80;99.90;;;;;;5028197;28;20028;-79
2023/03/15 00:44:58;;;;;;;5.00;0.70;;;1.80;99.90;;;;;;5020018;28;20033;-77
2023/03/15 00:47:24;;;;;;;1.77;0.73;;;1.80;99.90;;;;;;5027874;28;20033;-79
2023/03/15 00:49:50;;;;;;;2.88;0.95;;;1.80;99.90;;;;;;5028605;28;20045;-79
2023/03/15 00:52:16;;;;;;;2.38;0.90;;;1.80;99.90;;;;;;5024632;28;20049;-79
2023/03/15 00:54:43;;;;;;;3.65;0.70;;;1.70;99.90;;;;;;5029668;28;20037;-79
2023/03/15 00:57:09;;;;;;;3.08;0.95;;;1.70;99.90;;;;;;5033487;28;20037;-73
2023/03/15 00:59:34;;;;;;;3.72;0.88;;;1.70;99.90;;;;;;5040665;28;20491;-79
2023/03/15 01:02:06;;;;;;;2.40;0.73;;;1.80;99.90;;;;;;5049017;28;20456;-78
2023/03/15 01:04:32;;;;;;;3.38;1.00;;;1.80;99.90;;;;;;5030325;28;20037;-76
2023/03/15 01:06:58;;;;;;;2.47;0.80;;;1.80;99.90;;;;;;5027046;28;20036;-73
2023/03/15 01:09:24;;;;;;;1.67;0.70;;;1.80;99.90;;;;;;5025130;28;20053;-79
2023/03/15 01:11:50;;;;;;;2.38;1.10;;;1.80;99.90;;;;;;5028807;28;20049;-79
2023/03/15 01:14:17;;;;;;;2.95;1.25;;;1.90;99.90;;;;;;5030036;28;20106;-78
2023/03/15 01:16:44;;;;;;;2.15;0.85;;;1.90;99.90;;;;;;5048679;28;20750;-78
2023/03/15 01:19:11;;;;;;;2.58;0.90;;;1.90;99.90;;;;;;5036959;28;20068;-71
2023/03/15 01:21:37;;;;;;;2.92;1.10;;;1.90;99.90;;;;;;5008810;28;20037;-77
2023/03/15 01:24:03;;;;;;;3.08;0.90;;;2.00;99.90;;;;;;5025264;28;20029;-77
2023/03/15 01:26:28;;;;;;;2.60;1.20;;;1.90;99.90;;;;;;5024734;28;20052;-77
2023/03/15 01:28:54;;;;;;;3.03;1.10;;;1.90;99.90;;;;;;5027864;28;20022;-80
2023/03/15 01:31:26;;;;;;;5.43;1.42;;;1.90;99.90;;;;;;5025361;28;20041;-79
2023/03/15 01:33:52;;;;;;;3.90;1.83;;;1.90;99.90;;;;;;5026165;28;20064;-80
2023/03/15 01:36:18;;;;;;;3.45;1.40;;;1.80;99.90;;;;;;5026853;28;20402;-77
2023/03/15 01:38:44;;;;;;;3.28;1.30;;;1.70;99.90;;;;;;5027629;28;20052;-79
2023/03/15 01:41:12;;;;;;;3.20;1.27;;;1.60;99.90;;;;;;5026497;28;20444;-71
2023/03/15 01:43:38;;;;;;;4.03;1.40;;;1.50;99.90;;;;;;5026172;28;20137;-78
2023/03/15 01:46:19;;;;;;;2.88;1.40;;;1.50;99.90;;;;;;5027019;28;20424;-78
2023/03/15 01:48:50;;;;;;;4.03;1.42;;;1.50;99.90;;;;;;5015388;28;20375;-79
2023/03/15 01:51:25;;;;;;;5.65;1.67;;;1.50;99.90;;;;;;5026097;28;20448;-77
2023/03/15 01:54:18;;;;;;;3.90;1.60;;;1.50;99.90;;;;;;5032266;28;20104;-78
2023/03/15 01:57:03;;;;;;;3.67;1.73;;;1.60;99.90;;;;;;5024229;28;20041;-77
2023/03/15 01:59:39;;;;;;;2.70;1.17;;;1.60;99.90;;;;;;5030443;28;20549;-78
2023/03/15 02:02:06;;;;;;;3.22;1.65;;;1.50;99.90;;;;;;5031072;28;20049;-79
2023/03/15 02:04:41;;;;;;;3.88;1.70;;;1.50;99.90;;;;;;5031134;28;20174;-77
2023/03/15 02:07:08;;;;;;;3.10;1.60;;;1.40;99.90;;;;;;5054297;28;20480;-75
2023/03/15 02:10:02;;;;;;;4.43;1.73;;;1.30;99.90;;;;;;5029664;28;20472;-79
2023/03/15 02:12:31;;;;;;;3.50;1.70;;;1.40;99.90;;;;;;5030622;28;20052;-77
2023/03/15 02:15:00;;;;;;;3.25;1.42;;;1.40;99.90;;;;;;5028614;28;20435;-77
2023/03/15 02:17:39;;;;;;;3.70;1.63;;;1.50;99.90;;;;;;5029684;28;20121;-78
2023/03/15 02:20:32;;;;;;;3.25;1.60;;;1.50;99.90;;;;;;5036324;28;20041;-79
2023/03/15 02:23:07;;;;;;;5.15;1.83;;;1.50;99.90;;;;;;5030363;28;20039;-76
2023/03/15 02:25:53;;;;;;;4.38;1.70;;;1.40;99.90;;;;;;5030456;28;20032;-79
2023/03/15 02:28:19;;;;;;;3.90;2.03;;;1.40;99.90;;;;;;5028685;28;20042;-79
2023/03/15 02:30:46;;;;;;;5.85;1.77;;;1.30;99.90;;;;;;5028326;28;20050;-80
2023/03/15 02:33:23;;;;;;;6.63;2.17;;;1.30;99.90;;;;;;5027935;28;20025;-72
2023/03/15 02:35:50;;;;;;;6.68;1.98;;;1.30;99.90;;;;;;5031736;28;20394;-79
2023/03/15 02:38:16;;;;;;;5.40;1.98;;;1.30;99.90;;;;;;5029201;28;20036;-71
2023/03/15 02:40:44;;;;;;;6.82;2.08;;;1.20;99.90;;;;;;5025319;28;20375;-79
2023/03/15 02:43:16;;;;;;;6.82;2.53;;;1.30;99.90;;;;;;5029431;28;20030;-79
2023/03/15 02:45:43;;;;;;;6.55;2.33;;;1.20;99.90;;;;;;5030235;28;20037;-79
2023/03/15 02:48:10;;;;;;;5.28;2.33;;;1.30;99.90;;;;;;5029711;28;20108;-79
2023/03/15 02:50:36;;;;;;;5.50;2.08;;;1.30;99.90;;;;;;5028186;28;20049;-78
2023/03/15 02:53:02;;;;;;;9.15;2.30;;;1.30;99.90;;;;;;5029302;28;20041;-78
2023/03/15 02:55:31;;;;;;;5.65;2.50;;;1.30;99.90;;;;;;5029031;28;20530;-79
2023/03/15 02:57:58;;;;;;;7.68;2.97;;;1.30;99.90;;;;;;5029254;28;20044;-76
2023/03/15 03:00:23;;;;;;;11.52;3.70;;;1.30;99.90;;;;;;5027025;28;20389;-77
2023/03/15 03:02:49;;;;;;;13.15;4.07;;;1.40;99.90;;;;;;5028398;28;20026;-76
2023/03/15 03:05:16;;;;;;;11.35;4.03;;;1.40;99.90;;;;;;5034672;28;20048;-72
2023/03/15 03:07:41;;;;;;;13.48;4.65;;;1.40;99.90;;;;;;5029892;28;20499;-80
2023/03/15 03:10:09;;;;;;;12.63;4.53;;;1.40;99.90;;;;;;5029439;28;20080;-78
2023/03/15 03:12:35;;;;;;;26.05;6.25;;;1.40;99.90;;;;;;5028513;28;20037;-80
2023/03/15 03:15:02;;;;;;;17.05;6.03;;;1.40;99.90;;;;;;5029511;28;20072;-81
2023/03/15 03:17:28;;;;;;;23.83;5.93;;;1.40;99.90;;;;;;5029050;28;20033;-74
2023/03/15 03:19:54;;;;;;;22.33;6.20;;;1.50;99.90;;;;;;5031144;28;20040;-79
2023/03/15 03:22:23;;;;;;;18.73;6.13;;;1.40;99.90;;;;;;5028319;28;20039;-79
2023/03/15 03:24:52;;;;;;;21.48;5.63;;;1.40;99.90;;;;;;5030133;28;20167;-80
2023/03/15 03:27:18;;;;;;;17.95;6.13;;;1.30;99.90;;;;;;5025991;28;20037;-72
2023/03/15 03:29:44;;;;;;;17.80;6.15;;;1.30;99.90;;;;;;5029363;28;20041;-78
2023/03/15 03:32:10;;;;;;;15.00;5.70;;;1.30;99.90;;;;;;5027714;28;20092;-77
2023/03/15 03:34:36;;;;;;;19.83;6.85;;;1.30;99.90;;;;;;5027861;28;20646;-80
2023/03/15 03:37:01;;;;;;;22.20;7.50;;;1.30;99.90;;;;;;5029198;28;20029;-80
2023/03/15 03:39:27;;;;;;;29.73;7.32;;;1.30;99.90;;;;;;5028130;28;20048;-77
2023/03/15 03:41:53;;;;;;;25.98;9.05;;;1.20;99.90;;;;;;5028990;28;20112;-77
2023/03/15 03:44:19;;;;;;;24.58;8.60;;;1.30;99.90;;;;;;5028223;28;20100;-71
2023/03/15 03:46:44;;;;;;;26.75;9.45;;;1.20;99.90;;;;;;5027556;28;20060;-80
2023/03/15 03:49:10;;;;;;;29.52;8.93;;;1.20;99.90;;;;;;5032831;28;20466;-79
2023/03/15 03:51:36;;;;;;;27.90;9.73;;;1.20;99.90;;;;;;5024603;28;20024;-79
2023/03/15 03:54:03;;;;;;;27.23;9.27;;;1.20;99.90;;;;;;5029061;28;21040;-77
2023/03/15 03:56:29;;;;;;;24.67;9.40;;;1.30;99.90;;;;;;5030104;28;20363;-78
2023/03/15 03:58:55;;;;;;;26.88;9.63;;;1.30;99.90;;;;;;5030360;28;20021;-80
2023/03/15 04:01:21;;;;;;;27.77;8.95;;;1.30;99.90;;;;;;5026516;28;20030;-72
2023/03/15 04:03:47;;;;;;;23.20;7.93;;;1.30;99.90;;;;;;5021155;28;20148;-79
2023/03/15 04:06:14;;;;;;;29.10;8.73;;;1.30;99.90;;;;;;5029203;28;20029;-77
2023/03/15 04:08:40;;;;;;;29.77;8.35;;;1.20;99.90;;;;;;5020510;28;20030;-74
2023/03/15 04:11:05;;;;;;;24.58;8.10;;;1.20;99.90;;;;;;5018922;28;20038;-78
2023/03/15 04:13:32;;;;;;;22.60;8.27;;;1.20;99.90;;;;;;5020866;28;20385;-80
2023/03/15 04:16:00;;;;;;;24.02;8.23;;;1.20;99.90;;;;;;5025425;28;20033;-78
2023/03/15 04:18:26;;;;;;;26.75;8.48;;;1.20;99.90;;;;;;5021396;28;20022;-72
2023/03/15 04:20:53;;;;;;;25.75;7.88;;;1.10;99.90;;;;;;5026303;28;20112;-78
2023/03/15 04:23:21;;;;;;;24.17;8.82;;;1.10;99.90;;;;;;5027472;28;20108;-71
2023/03/15 04:25:48;;;;;;;23.63;9.00;;;1.10;99.90;;;;;;5027912;28;20037;-76
2023/03/15 04:28:14;;;;;;;20.25;7.07;;;1.10;99.90;;;;;;5026345;28;20033;-80
2023/03/15 04:30:45;;;;;;;23.20;7.65;;;1.10;99.90;;;;;;5026827;28;20087;-80
2023/03/15 04:33:10;;;;;;;19.13;6.85;;;1.10;99.90;;;;;;5026809;28;20611;-78
2023/03/15 04:35:37;;;;;;;19.45;6.82;;;1.20;99.90;;;;;;5024086;28;20018;-75
2023/03/15 04:38:04;;;;;;;22.42;7.00;;;1.20;99.90;;;;;;5018753;28;20033;-78
2023/03/15 04:40:33;;;;;;;22.42;7.85;;;1.20;99.90;;;;;;5027193;28;20029;-79
2023/03/15 04:43:00;;;;;;;18.15;7.03;;;1.20;99.90;;;;;;5027230;28;20079;-80
2023/03/15 04:45:27;;;;;;;18.33;7.65;;;1.20;99.90;;;;;;5026996;28;20131;-79
2023/03/15 04:47:54;;;;;;;24.52;6.95;;;1.10;99.90;;;;;;5026398;28;20077;-76
2023/03/15 04:50:21;;;;;;;17.63;7.18;;;1.10;99.90;;;;;;5022876;28;20033;-71
2023/03/15 04:52:47;;;;;;;15.85;6.25;;;1.10;99.90;;;;;;5027631;28;20045;-79
2023/03/15 04:55:13;;;;;;;19.85;6.97;;;1.10;99.90;;;;;;5028449;28;20152;-75
2023/03/15 04:57:38;;;;;;;17.23;6.45;;;1.10;99.90;;;;;;5025203;28;20041;-72
2023/03/15 05:00:09;;;;;;;23.02;7.07;;;1.10;99.90;;;;;;5015742;28;20048;-77
2023/03/15 05:02:40;;;;;;;21.27;6.97;;;1.00;99.90;;;;;;5023402;28;20528;-70
2023/03/15 05:05:07;;;;;;;19.08;6.38;;;1.00;99.90;;;;;;5025998;28;20103;-74
2023/03/15 05:07:34;;;;;;;16.45;5.93;;;1.00;99.90;;;;;;5033452;28;20128;-77
2023/03/15 05:10:00;;;;;;;16.25;6.20;;;1.00;99.90;;;;;;5027678;28;20512;-77
2023/03/15 05:12:26;;;;;;;20.25;6.32;;;1.00;99.90;;;;;;5033685;28;20042;-78
2023/03/15 05:14:52;;;;;;;18.50;6.22;;;1.00;99.90;;;;;;5034642;28;20124;-78
2023/03/15 05:17:18;;;;;;;16.30;6.03;;;1.00;99.90;;;;;;5027383;28;20141;-82
2023/03/15 05:19:44;;;;;;;23.63;6.28;;;1.00;99.90;;;;;;5027558;28;20029;-79
2023/03/15 05:22:10;;;;;;;17.33;5.82;;;1.00;99.90;;;;;;5024382;28;20045;-81
2023/03/15 05:24:36;;;;;;;24.48;6.60;;;1.00;99.90;;;;;;5026346;28;20037;-82
2023/03/15 05:27:05;;;;;;;17.02;6.43;;;1.00;99.90;;;;;;5027892;28;20033;-80
2023/03/15 05:29:31;;;;;;;17.58;6.50;;;1.00;99.90;;;;;;5027023;28;20046;-78
2023/03/15 05:31:57;;;;;;;19.13;5.80;;;0.90;99.90;;;;;;5026573;28;20366;-75
2023/03/15 05:34:23;;;;;;;16.65;5.75;;;0.90;99.90;;;;;;5025520;28;20045;-69
2023/03/15 05:36:51;;;;;;;23.23;5.90;;;0.90;99.90;;;;;;5031670;28;20037;-78
2023/03/15 05:39:18;;;;;;;19.98;6.03;;;0.80;99.90;;;;;;5032373;28;20068;-73
2023/03/15 05:41:43;;;;;;;21.92;6.20;;;0.80;99.90;;;;;;5028884;28;20686;-77
2023/03/15 05:44:09;;;;;;;19.77;6.43;;;0.90;99.90;;;;;;5033128;28;20025;-81
2023/03/15 05:46:35;;;;;;;24.42;5.90;;;0.90;99.90;;;;;;5030729;28;20021;-76
2023/03/15 05:49:00;;;;;;;22.60;5.85;;;0.80;99.90;;;;;;5030051;28;20036;-75
2023/03/15 05:51:26;;;;;;;18.20;5.78;;;0.80;99.90;;;;;;5028872;28;20037;-71
2023/03/15 05:53:52;;;;;;;17.25;5.05;;;0.80;99.90;;;;;;5031489;28;20037;-73
2023/03/15 05:56:17;;;;;;;20.15;5.88;;;0.80;99.90;;;;;;5031125;28;20153;-78
2023/03/15 05:58:43;;;;;;;18.98;5.70;;;0.80;99.90;;;;;;5030690;28;20104;-74
2023/03/15 06:01:08;;;;;;;17.88;5.07;;;0.70;99.90;;;;;;5036473;28;20047;-78
2023/03/15 06:03:34;;;;;;;18.38;5.25;;;0.70;99.90;;;;;;5024148;28;20029;-75
2023/03/15 06:06:00;;;;;;;19.98;5.88;;;0.70;99.90;;;;;;5030343;28;20057;-78
2023/03/15 06:08:26;;;;;;;18.70;5.28;;;0.80;99.90;;;;;;5025253;28;20036;-72
2023/03/15 06:10:52;;;;;;;19.20;5.00;;;0.80;99.90;;;;;;5027691;28;20051;-69
2023/03/15 06:13:17;;;;;;;14.52;5.28;;;0.80;99.90;;;;;;5023375;28;20112;-68
2023/03/15 06:15:46;;;;;;;23.80;5.43;;;0.80;99.90;;;;;;5029213;28;20538;-72
2023/03/15 06:18:12;;;;;;;14.73;5.05;;;0.80;99.90;;;;;;5023978;28;20099;-71
2023/03/15 06:20:39;;;;;;;18.40;5.32;;;0.80;99.90;;;;;;5027283;28;20379;-69
2023/03/15 06:23:05;;;;;;;16.10;6.07;;;0.80;99.90;;;;;;5028638;28;20029;-74
2023/03/15 06:25:30;;;;;;;20.48;5.95;;;0.80;99.90;;;;;;5031145;28;20029;-71
2023/03/15 06:27:56;;;;;;;16.00;5.25;;;0.80;99.90;;;;;;5027626;28;20029;-71
2023/03/15 06:30:21;;;;;;;21.90;5.20;;;0.80;99.90;;;;;;5034761;28;20038;-71
2023/03/15 06:32:47;;;;;;;16.95;5.55;;;0.90;99.90;;;;;;5028579;28;20060;-71
2023/03/15 06:35:13;;;;;;;23.73;6.38;;;0.80;99.90;;;;;;5027903;28;20133;-72
2023/03/15 06:37:40;;;;;;;21.35;5.93;;;0.90;99.90;;;;;;5030620;28;20392;-79
2023/03/15 06:40:08;;;;;;;18.00;5.55;;;0.90;99.90;;;;;;5032838;28;20058;-72
2023/03/15 06:42:35;;;;;;;27.05;5.72;;;0.90;99.90;;;;;;5027086;28;20041;-72
2023/03/15 06:45:02;;;;;;;16.73;5.10;;;0.90;99.90;;;;;;5033303;28;20042;-71
2023/03/15 06:47:28;;;;;;;18.80;5.60;;;0.90;99.90;;;;;;5026517;28;20025;-72
2023/03/15 06:49:54;;;;;;;19.92;6.18;;;0.90;99.90;;;;;;5029690;28;20068;-74
2023/03/15 06:52:20;;;;;;;23.52;6.45;;;0.90;99.90;;;;;;5022928;28;20065;-71
2023/03/15 06:54:45;;;;;;;17.95;5.78;;;0.90;99.90;;;;;;5035182;28;20025;-71
2023/03/15 06:57:11;;;;;;;21.73;5.90;;;0.80;99.90;;;;;;5023025;28;20061;-74
2023/03/15 06:59:37;;;;;;;22.70;5.88;;;0.80;99.90;;;;;;5030949;28;20044;-72
2023/03/15 07:02:02;;;;;;;15.23;5.35;;;0.90;99.90;;;;;;5026086;28;20041;-72
2023/03/15 07:04:28;;;;;;;15.50;5.55;;;0.90;99.90;;;;;;5025856;28;20460;-69
2023/03/15 07:06:54;;;;;;;19.35;5.47;;;0.90;99.90;;;;;;5027078;28;20026;-76
2023/03/15 07:09:20;;;;;;;15.55;5.30;;;0.90;99.90;;;;;;5027684;28;20472;-75
2023/03/15 07:11:45;;;;;;;17.30;5.25;;;0.90;99.90;;;;;;5025508;28;20041;-77
2023/03/15 07:14:11;;;;;;;16.10;5.15;;;1.10;99.90;;;;;;5030044;28;20375;-76
2023/03/15 07:16:36;;;;;;;19.70;4.85;;;1.10;99.90;;;;;;5025914;28;20381;-76
2023/03/15 07:19:02;;;;;;;13.75;4.63;;;1.10;99.90;;;;;;5025253;28;20096;-77
2023/03/15 07:21:28;;;;;;;12.25;4.20;;;1.10;99.90;;;;;;5034656;28;20056;-69
2023/03/15 07:23:54;;;;;;;13.75;4.25;;;1.20;99.90;;;;;;5025780;28;20091;-75
2023/03/15 07:26:20;;;;;;;15.35;4.75;;;1.30;99.90;;;;;;5028901;28;20029;-75
2023/03/15 07:28:46;;;;;;;14.48;4.25;;;1.30;99.90;;;;;;5027629;28;20480;-72
2023/03/15 07:31:12;;;;;;;16.50;4.93;;;1.40;99.90;;;;;;5029364;28;20069;-74
2023/03/15 07:33:38;;;;;;;15.73;4.68;;;1.50;99.90;;;;;;5028536;28;20636;-73
2023/03/15 07:36:05;;;;;;;12.15;4.50;;;1.50;99.90;;;;;;5029907;28;20030;-72
2023/03/15 07:38:31;;;;;;;15.48;4.72;;;1.60;99.90;;;;;;5029235;28;20108;-68
2023/03/15 07:41:00;;;;;;;18.08;4.72;;;1.60;99.90;;;;;;5032466;28;20040;-72
2023/03/15 07:43:26;;;;;;;13.93;4.18;;;1.70;99.90;;;;;;5040192;28;20068;-76
2023/03/15 07:45:51;;;;;;;20.75;5.57;;;1.60;99.90;;;;;;5030373;28;20188;-72
2023/03/15 07:48:17;;;;;;;17.13;5.25;;;1.70;99.90;;;;;;5029325;28;20076;-69
2023/03/15 07:50:44;;;;;;;16.92;4.97;;;1.70;99.90;;;;;;5026921;28;20041;-71
2023/03/15 07:53:09;;;;;;;15.13;5.65;;;1.80;99.90;;;;;;5029719;28;20057;-74
2023/03/15 07:55:35;;;;;;;15.20;4.88;;;1.80;99.90;;;;;;5028748;28;20061;-74
2023/03/15 07:58:01;;;;;;;12.75;5.00;;;1.90;99.90;;;;;;5027947;28;20057;-74
2023/03/15 08:00:27;;;;;;;16.15;4.10;;;2.00;99.90;;;;;;5028498;28;21372;-70
2023/03/15 08:02:53;;;;;;;14.02;4.22;;;2.10;99.90;;;;;;5027991;28;20029;-74
2023/03/15 08:05:20;;;;;;;12.43;5.10;;;2.10;99.90;;;;;;5028184;28;20029;-75
2023/03/15 08:07:47;;;;;;;18.33;4.82;;;2.20;99.90;;;;;;5025056;28;20029;-76
2023/03/15 08:10:13;;;;;;;10.50;3.75;;;2.30;99.90;;;;;;5025980;28;20057;-72
2023/03/15 08:12:41;;;;;;;18.92;4.72;;;2.30;99.90;;;;;;5024139;28;20040;-73
2023/03/15 08:15:10;;;;;;;13.93;5.13;;;2.30;99.90;;;;;;5026786;28;20505;-73
2023/03/15 08:17:36;;;;;;;14.80;3.53;;;2.20;99.90;;;;;;5025438;28;20144;-76
2023/03/15 08:20:01;;;;;;;14.80;3.78;;;2.30;99.90;;;;;;5026720;28;20666;-76
2023/03/15 08:22:29;;;;;;;15.05;3.45;;;2.40;99.90;;;;;;5028629;28;20056;-74
2023/03/15 08:24:56;;;;;;;14.43;3.97;;;2.40;99.90;;;;;;5026095;28;20021;-78
2023/03/15 08:27:22;;;;;;;14.10;3.83;;;2.50;99.90;;;;;;5028905;28;20117;-75
2023/03/15 08:29:48;;;;;;;12.15;3.40;;;2.50;99.90;;;;;;5027899;28;20049;-71
2023/03/15 08:32:15;;;;;;;13.02;3.75;;;2.50;99.90;;;;;;5034945;28;20087;-73
2023/03/15 08:34:41;;;;;;;16.52;4.47;;;2.60;99.90;;;;;;5027061;28;20037;-74
2023/03/15 08:37:08;;;;;;;8.25;2.80;;;2.70;99.90;;;;;;5027674;28;20523;-74
2023/03/15 08:39:35;;;;;;;10.52;3.30;;;2.70;99.90;;;;;;5026801;28;20124;-67
2023/03/15 08:42:01;;;;;;;10.80;4.15;;;2.60;99.90;;;;;;5027077;28;20520;-75
2023/03/15 08:44:26;;;;;;;10.95;3.58;;;2.70;99.90;;;;;;5028778;28;20033;-73
2023/03/15 08:46:52;;;;;;;10.63;3.47;;;2.90;99.90;;;;;;5025988;28;20072;-72
2023/03/15 08:49:17;;;;;;;10.82;3.75;;;3.10;99.90;;;;;;5026691;28;20033;-74
2023/03/15 08:51:43;;;;;;;13.05;3.75;;;3.10;99.90;;;;;;5024895;28;20040;-72
2023/03/15 08:54:09;;;;;;;14.18;3.95;;;3.20;99.90;;;;;;5027984;28;20404;-74
2023/03/15 08:56:34;;;;;;;13.40;3.97;;;3.20;99.90;;;;;;5027215;28;20036;-67
2023/03/15 08:59:00;;;;;;;8.43;3.05;;;3.40;99.90;;;;;;5027840;28;20030;-75
2023/03/15 09:01:26;;;;;;;14.95;3.97;;;3.70;99.90;;;;;;5027415;28;20396;-75
2023/03/15 09:03:51;;;;;;;16.63;3.47;;;3.60;99.90;;;;;;5027713;28;20865;-75
2023/03/15 09:06:17;;;;;;;10.35;2.78;;;3.70;99.90;;;;;;5027311;28;20578;-72
2023/03/15 09:08:43;;;;;;;11.75;3.13;;;3.50;99.90;;;;;;5027342;28;20037;-67
2023/03/15 09:11:29;;;;;;;12.48;2.95;;;3.30;99.90;;;;;;5009548;28;20057;-73
2023/03/15 09:13:55;;;;;;;12.18;3.15;;;3.20;99.90;;;;;;5027534;28;20515;-72
2023/03/15 09:16:23;;;;;;;18.88;2.85;;;3.30;99.90;;;;;;5028537;28;20033;-71
2023/03/15 09:18:49;;;;;;;9.32;2.40;;;3.60;99.90;;;;;;5027442;28;20036;-73
2023/03/15 09:21:14;;;;;;;9.32;2.60;;;3.50;99.90;;;;;;5033149;28;20029;-77
2023/03/15 09:23:40;;;;;;;15.93;2.70;;;3.80;99.90;;;;;;5027124;28;20087;-78
2023/03/15 09:26:06;;;;;;;8.85;2.00;;;4.10;99.90;;;;;;5027099;28;20092;-77
2023/03/15 09:28:32;;;;;;;7.07;1.67;;;4.00;99.90;;;;;;5027776;28;20648;-76
2023/03/15 09:30:58;;;;;;;14.18;2.42;;;4.00;99.90;;;;;;5027112;28;20034;-73
2023/03/15 09:33:23;;;;;;;12.48;2.47;;;4.10;99.90;;;;;;5027903;28;20104;-73
2023/03/15 09:35:52;;;;;;;9.25;2.40;;;4.40;99.90;;;;;;5026508;28;20462;-74
2023/03/15 09:38:19;;;;;;;10.38;2.30;;;4.60;99.90;;;;;;5026317;28;20029;-71
2023/03/15 09:40:45;;;;;;;9.15;1.98;;;4.60;99.90;;;;;;5026103;28;20033;-68
2023/03/15 09:43:53;;;;;;;7.03;2.17;;;4.70;99.90;;;;;;5025067;28;20041;-72
2023/03/15 09:46:32;;;;;;;12.57;1.90;;;4.60;99.90;;;;;;5022241;28;20041;-71
2023/03/15 09:49:24;;;;;;;11.88;2.45;;;4.70;99.90;;;;;;5019518;28;20041;-71
2023/03/15 09:52:02;;;;;;;7.68;2.50;;;4.50;99.90;;;;;;5013776;28;20045;-76
2023/03/15 09:54:43;;;;;;;10.52;2.50;;;4.40;99.90;;;;;;5023431;28;20025;-74
2023/03/15 09:57:17;;;;;;;10.60;2.10;;;4.50;99.90;;;;;;5023621;28;20029;-72
2023/03/15 09:59:48;;;;;;;7.72;1.80;;;4.70;99.90;;;;;;5026223;28;20045;-69
2023/03/15 10:02:20;;;;;;;5.35;1.70;;;4.50;99.90;;;;;;5027159;28;20029;-70
2023/03/15 10:04:48;;;;;;;9.40;1.58;;;4.30;99.90;;;;;;5023248;28;20401;-73
2023/03/15 10:07:15;;;;;;;5.65;1.83;;;4.40;99.90;;;;;;5026008;28;20435;-70
2023/03/15 10:09:42;;;;;;;10.85;1.73;;;4.50;99.90;;;;;;5024199;28;20168;-75
2023/03/15 10:12:17;;;;;;;6.78;1.60;;;4.60;99.90;;;;;;5024836;28;20040;-68
2023/03/15 10:14:48;;;;;;;8.05;1.77;;;4.40;99.90;;;;;;5027924;28;20033;-69
2023/03/15 10:17:25;;;;;;;5.25;1.70;;;4.40;99.90;;;;;;5028983;28;20385;-75
2023/03/15 10:19:57;;;;;;;7.00;1.63;;;4.40;99.90;;;;;;5028148;28;20033;-75
2023/03/15 10:22:50;;;;;;;7.07;2.10;;;4.50;99.90;;;;;;5032834;28;20037;-72
2023/03/15 10:25:23;;;;;;;9.27;1.48;;;4.80;99.90;;;;;;5027807;28;20025;-71
2023/03/15 10:28:00;;;;;;;7.65;1.55;;;4.70;99.90;;;;;;5030375;28;20033;-74
2023/03/15 10:30:29;;;;;;;5.32;1.38;;;4.60;99.90;;;;;;5030243;28;20041;-73
2023/03/15 10:33:02;;;;;;;10.23;1.67;;;4.70;99.90;;;;;;5025278;28;20114;-73
2023/03/15 10:35:28;;;;;;;8.35;1.50;;;4.90;99.90;;;;;;5033178;28;20055;-67
2023/03/15 10:37:54;;;;;;;6.50;1.80;;;5.30;99.90;;;;;;5025271;28;20469;-73
2023/03/15 10:40:45;;;;;;;8.88;1.92;;;5.40;99.90;;;;;;5022961;28;20043;-72
2023/03/15 10:43:30;;;;;;;4.55;1.42;;;5.30;99.90;;;;;;5018077;28;20065;-73
2023/03/15 10:46:03;;;;;;;6.40;1.48;;;5.30;99.90;;;;;;5028089;28;20083;-71
2023/03/15 10:48:30;;;;;;;7.85;1.40;;;5.00;99.90;;;;;;5033447;28;20481;-71
2023/03/15 10:50:59;;;;;;;5.50;1.17;;;4.90;99.90;;;;;;5033727;28;20042;-73
2023/03/15 10:53:25;;;;;;;10.77;1.70;;;4.80;99.90;;;;;;5028986;28;20030;-75
2023/03/15 10:56:01;;;;;;;5.85;1.83;;;4.80;99.90;;;;;;5019859;28;20146;-73
2023/03/15 10:58:40;;;;;;;7.95;1.65;;;4.90;99.90;;;;;;5026230;28;20025;-74
2023/03/15 11:01:12;;;;;;;5.53;1.50;;;4.90;99.90;;;;;;5028541;28;20034;-71
2023/03/15 11:03:40;;;;;;;5.95;1.65;;;5.00;99.90;;;;;;5030193;28;20393;-71
2023/03/15 11:06:20;;;;;;;7.53;1.38;;;5.00;99.90;;;;;;5015376;28;20033;-73
2023/03/15 11:08:45;;;;;;;8.05;2.08;;;5.00;99.90;;;;;;5025442;28;20057;-73
2023/03/15 11:11:11;;;;;;;4.45;1.52;;;5.20;99.90;;;;;;5028304;28;20491;-72
2023/03/15 11:13:39;;;;;;;7.60;1.33;;;5.20;99.90;;;;;;5028251;28;20032;-72
2023/03/15 11:16:20;;;;;;;6.35;1.40;;;5.20;99.90;;;;;;5038294;28;20094;-73
2023/03/15 11:18:53;;;;;;;7.47;1.65;;;5.10;99.90;;;;;;5029151;28;20847;-73
2023/03/15 11:21:24;;;;;;;4.07;1.40;;;5.00;99.90;;;;;;5026738;28;20426;-73
2023/03/15 11:23:51;;;;;;;10.65;1.70;;;5.10;99.90;;;;;;5026349;28;20029;-72
2023/03/15 11:26:18;;;;;;;5.22;1.40;;;5.40;99.90;;;;;;5028286;28;20071;-72
2023/03/15 11:28:50;;;;;;;7.85;1.70;;;5.70;99.90;;;;;;5023844;28;20549;-66
2023/03/15 11:31:16;;;;;;;3.63;1.10;;;5.90;99.90;;;;;;5019887;28;20079;-76
2023/03/15 11:33:52;;;;;;;4.13;1.40;;;6.00;99.90;;;;;;5028259;28;20041;-67
2023/03/15 11:36:21;;;;;;;5.38;1.40;;;6.30;99.90;;;;;;5027049;28;20024;-75
2023/03/15 11:38:48;;;;;;;11.13;1.58;;;6.00;99.90;;;;;;5026953;28;20026;-75
2023/03/15 11:41:34;;;;;;;5.88;1.30;;;5.70;99.90;;;;;;5023682;28;20041;-71
2023/03/15 11:44:11;;;;;;;6.72;1.42;;;5.50;99.90;;;;;;5025664;28;20053;-75
2023/03/15 11:47:04;;;;;;;7.78;1.30;;;5.40;99.90;;;;;;5026217;28;20061;-69
2023/03/15 11:49:34;;;;;;;5.45;1.30;;;5.20;99.90;;;;;;5028684;28;20386;-73
2023/03/15 11:51:59;;;;;;;7.43;1.33;;;5.00;99.90;;;;;;5028775;28;20107;-73
2023/03/15 11:54:29;;;;;;;3.80;1.00;;;4.90;99.90;;;;;;5029373;28;20458;-75
2023/03/15 11:56:56;;;;;;;7.97;1.27;;;4.80;99.90;;;;;;5028738;28;20029;-74
2023/03/15 11:59:47;;;;;;;6.25;0.90;;;4.70;99.90;;;;;;5031756;28;20029;-73
2023/03/15 12:02:13;;;;;;;3.78;1.10;;;4.80;99.90;;;;;;5027425;28;20056;-70
2023/03/15 12:04:44;;;;;;;10.55;1.33;;;4.60;99.90;;;;;;5026918;28;20033;-68
2023/03/15 12:07:22;;;;;;;6.57;1.38;;;4.70;99.90;;;;;;5028860;28;20056;-73
2023/03/15 12:10:18;;;;;;;5.65;1.23;;;4.80;99.90;;;;;;5027034;28;20049;-77
2023/03/15 12:12:46;;;;;;;6.32;1.33;;;4.90;99.90;;;;;;5028560;28;20030;-67
2023/03/15 12:15:18;;;;;;;5.03;1.38;;;4.80;99.90;;;;;;5028811;28;20365;-72
2023/03/15 12:17:55;;;;;;;3.38;1.20;;;4.80;99.90;;;;;;5028801;28;20120;-67
2023/03/15 12:20:36;;;;;;;7.65;1.92;;;4.90;99.90;;;;;;5029153;28;20033;-75
2023/03/15 12:23:16;;;;;;;5.00;1.42;;;5.00;99.90;;;;;;5026548;28;20056;-73
2023/03/15 12:25:55;;;;;;;6.93;1.60;;;5.00;99.90;;;;;;5029450;28;20041;-73
2023/03/15 12:29:02;;;;;;;7.38;1.55;;;5.00;99.90;;;;;;5028032;28;20515;-73
2023/03/15 12:31:53;;;;;;;9.85;1.80;;;5.00;99.90;;;;;;5028155;28;20110;-73
2023/03/15 12:34:26;;;;;;;8.68;1.40;;;5.00;99.90;;;;;;5024009;28;20121;-74
2023/03/15 12:37:03;;;;;;;4.40;1.60;;;5.20;99.90;;;;;;5027499;28;20047;-74
2023/03/15 12:39:42;;;;;;;6.90;1.50;;;5.20;99.90;;;;;;5021644;28;20040;-76
2023/03/15 12:42:37;;;;;;;10.05;2.13;;;5.40;99.90;;;;;;5034023;28;20032;-74
2023/03/15 12:45:15;;;;;;;8.45;1.70;;;5.40;99.90;;;;;;5021570;28;20064;-68
2023/03/15 12:47:53;;;;;;;5.22;1.50;;;5.30;99.90;;;;;;5022231;28;20033;-73
2023/03/15 12:50:42;;;;;;;9.70;1.58;;;5.30;99.90;;;;;;5027860;28;20043;-74
2023/03/15 12:53:35;;;;;;;9.93;1.90;;;5.30;99.90;;;;;;5027513;28;20768;-74
2023/03/15 12:56:41;;;;;;;7.18;1.65;;;5.20;99.90;;;;;;5025599;28;20025;-74
2023/03/15 12:59:22;;;;;;;8.55;1.70;;;5.20;99.90;;;;;;5024321;28;20053;-75
2023/03/15 13:01:49;;;;;;;6.63;1.77;;;5.10;99.90;;;;;;5019646;28;20500;-67